sensor_id;sensor_type;location;lat;lon;timestamp;temperature;humidity
6810;DHT22;3443;48.812;9.112;2023-02-26T00:00:22;0.70;99.90
6810;DHT22;3443;48.812;9.112;2023-02-26T00:02:48;0.70;99.90
6810;DHT22;3443;48.812;9.112;2023-02-26T00:05:14;0.60;99.90
6810;DHT22;3443;48.812;9.112;2023-02-26T00:07:41;0.60;99.90
6810;DHT22;3443;48.812;9.112;2023-02-26T00:10:09;0.70;99.90
6810;DHT22;3443;48.812;9.112;2023-02-26T00:12:35;0.70;99.90
6810;DHT22;3443;48.812;9.112;2023-02-26T00:15:02;0.70;99.90
6810;DHT22;3443;48.812;9.112;2023-02-26T00:20:05;0.70;99.90
6810;DHT22;3443;48.812;9.112;2023-02-26T00:22:31;0.70;99.90
6810;DHT22;3443;48.812;9.112;2023-02-26T00:24:57;0.60;99.90
6810;DHT22;3443;48.812;9.112;2023-02-26T00:27:23;0.60;99.90
6810;DHT22;3443;48.812;9.112;2023-02-26T00:29:49;0.60;99.90
6810;DHT22;3443;48.812;9.112;2023-02-26T00:32:15;0.60;99.90
6810;DHT22;3443;48.812;9.112;2023-02-26T00:34:43;0.50;99.90
6810;DHT22;3443;48.812;9.112;2023-02-26T00:42:22;0.50;99.90
6810;DHT22;3443;48.812;9.112;2023-02-26T00:44:47;0.40;99.90
6810;DHT22;3443;48.812;9.112;2023-02-26T00:47:40;0.50;99.90
6810;DHT22;3443;48.812;9.112;2023-02-26T00:55:28;0.40;99.90
6810;DHT22;3443;48.812;9.112;2023-02-26T00:57:53;0.30;99.90
6810;DHT22;3443;48.812;9.112;2023-02-26T01:00:20;0.30;99.90
6810;DHT22;3443;48.812;9.112;2023-02-26T01:02:46;0.30;99.90
6810;DHT22;3443;48.812;9.112;2023-02-26T01:05:13;0.30;99.90
6810;DHT22;3443;48.812;9.112;2023-02-26T01:10:26;0.40;99.90
6810;DHT22;3443;48.812;9.112;2023-02-26T01:12:52;0.40;99.90
6810;DHT22;3443;48.812;9.112;2023-02-26T01:15:18;0.30;99.90
6810;DHT22;3443;48.812;9.112;2023-02-26T01:20:56;0.20;99.90
6810;DHT22;3443;48.812;9.112;2023-02-26T01:23:25;0.20;99.90
6810;DHT22;3443;48.812;9.112;2023-02-26T01:26:00;0.20;99.90
6810;DHT22;3443;48.812;9.112;2023-02-26T01:28:27;0.20;99.90
6810;DHT22;3443;48.812;9.112;2023-02-26T01:30:56;0.10;99.90
6810;DHT22;3443;48.812;9.112;2023-02-26T01:34:02;0.00;99.90
6810;DHT22;3443;48.812;9.112;2023-02-26T01:36:35;0.00;99.90
6810;DHT22;3443;48.812;9.112;2023-02-26T01:39:19;0.00;99.90
6810;DHT22;3443;48.812;9.112;2023-02-26T01:42:04;-0.10;99.90
6810;DHT22;3443;48.812;9.112;2023-02-26T01:44:45;-0.10;99.90
6810;DHT22;3443;48.812;9.112;2023-02-26T01:47:19;-0.10;99.90
6810;DHT22;3443;48.812;9.112;2023-02-26T01:49:45;-0.10;99.90
6810;DHT22;3443;48.812;9.112;2023-02-26T01:55:05;-0.10;99.90
6810;DHT22;3443;48.812;9.112;2023-02-26T01:57:31;-0.10;99.90
6810;DHT22;3443;48.812;9.112;2023-02-26T01:59:56;-0.10;99.90
6810;DHT22;3443;48.812;9.112;2023-02-26T02:02:23;0.00;99.90
6810;DHT22;3443;48.812;9.112;2023-02-26T02:04:49;0.00;99.90
6810;DHT22;3443;48.812;9.112;2023-02-26T02:07:16;-0.10;99.90
6810;DHT22;3443;48.812;9.112;2023-02-26T02:09:42;-0.20;99.90
6810;DHT22;3443;48.812;9.112;2023-02-26T02:12:40;-0.20;99.90
6810;DHT22;3443;48.812;9.112;2023-02-26T02:15:19;-0.20;99.90
6810;DHT22;3443;48.812;9.112;2023-02-26T02:18:11;-0.10;99.90
6810;DHT22;3443;48.812;9.112;2023-02-26T02:23:44;-0.20;99.90
6810;DHT22;3443;48.812;9.112;2023-02-26T02:31:40;-0.50;99.90
6810;DHT22;3443;48.812;9.112;2023-02-26T02:34:15;-0.40;99.90
6810;DHT22;3443;48.812;9.112;2023-02-26T02:36:58;-0.50;99.90
6810;DHT22;3443;48.812;9.112;2023-02-26T02:39:27;-0.50;99.90
6810;DHT22;3443;48.812;9.112;2023-02-26T02:44:29;-0.60;99.90
6810;DHT22;3443;48.812;9.112;2023-02-26T02:46:57;-0.60;99.90
6810;DHT22;3443;48.812;9.112;2023-02-26T02:49:34;-0.60;99.90
6810;DHT22;3443;48.812;9.112;2023-02-26T02:52:07;-0.70;99.90
6810;DHT22;3443;48.812;9.112;2023-02-26T02:54:55;-0.70;99.90
6810;DHT22;3443;48.812;9.112;2023-02-26T02:57:30;-0.70;99.90
6810;DHT22;3443;48.812;9.112;2023-02-26T03:00:11;-0.70;99.90
6810;DHT22;3443;48.812;9.112;2023-02-26T03:02:56;-0.80;99.90
6810;DHT22;3443;48.812;9.112;2023-02-26T03:05:22;-0.70;99.90
6810;DHT22;3443;48.812;9.112;2023-02-26T03:07:55;-0.70;99.90
6810;DHT22;3443;48.812;9.112;2023-02-26T03:10:22;-0.20;99.90
6810;DHT22;3443;48.812;9.112;2023-02-26T03:12:47;-0.60;99.90
6810;DHT22;3443;48.812;9.112;2023-02-26T03:15:14;-0.60;99.90
6810;DHT22;3443;48.812;9.112;2023-02-26T03:20:34;-0.50;99.90
6810;DHT22;3443;48.812;9.112;2023-02-26T03:25:39;-0.50;99.90
6810;DHT22;3443;48.812;9.112;2023-02-26T03:28:22;-0.50;99.90
6810;DHT22;3443;48.812;9.112;2023-02-26T03:31:21;-0.40;99.90
6810;DHT22;3443;48.812;9.112;2023-02-26T03:38:57;-0.50;99.90
6810;DHT22;3443;48.812;9.112;2023-02-26T03:41:28;-0.60;99.90
6810;DHT22;3443;48.812;9.112;2023-02-26T03:44:08;-0.60;99.90
6810;DHT22;3443;48.812;9.112;2023-02-26T03:46:40;-0.60;99.90
6810;DHT22;3443;48.812;9.112;2023-02-26T03:49:19;-0.70;99.90
6810;DHT22;3443;48.812;9.112;2023-02-26T03:51:46;-0.80;99.90
6810;DHT22;3443;48.812;9.112;2023-02-26T03:54:22;-0.90;99.90
6810;DHT22;3443;48.812;9.112;2023-02-26T03:56:49;-0.90;99.90
6810;DHT22;3443;48.812;9.112;2023-02-26T03:59:16;-1.00;99.90
6810;DHT22;3443;48.812;9.112;2023-02-26T04:02:00;-1.00;99.90
6810;DHT22;3443;48.812;9.112;2023-02-26T04:07:12;-1.10;99.90
6810;DHT22;3443;48.812;9.112;2023-02-26T04:09:46;-0.90;99.90
6810;DHT22;3443;48.812;9.112;2023-02-26T04:12:12;-0.90;99.90
6810;DHT22;3443;48.812;9.112;2023-02-26T04:14:37;-0.90;99.90
6810;DHT22;3443;48.812;9.112;2023-02-26T04:17:03;-0.90;99.90
6810;DHT22;3443;48.812;9.112;2023-02-26T04:19:29;-0.90;99.90
6810;DHT22;3443;48.812;9.112;2023-02-26T04:21:55;-1.00;99.90
6810;DHT22;3443;48.812;9.112;2023-02-26T04:24:21;-1.00;99.90
6810;DHT22;3443;48.812;9.112;2023-02-26T04:26:46;-1.10;99.90
6810;DHT22;3443;48.812;9.112;2023-02-26T04:29:12;-1.10;99.90
6810;DHT22;3443;48.812;9.112;2023-02-26T04:31:37;-1.10;99.90
6810;DHT22;3443;48.812;9.112;2023-02-26T04:34:03;-1.20;99.90
6810;DHT22;3443;48.812;9.112;2023-02-26T04:36:28;-1.20;99.90
6810;DHT22;3443;48.812;9.112;2023-02-26T04:38:54;-1.10;99.90
6810;DHT22;3443;48.812;9.112;2023-02-26T04:41:20;-1.20;99.90
6810;DHT22;3443;48.812;9.112;2023-02-26T04:43:45;-1.30;99.90
6810;DHT22;3443;48.812;9.112;2023-02-26T04:46:11;-1.30;99.90
6810;DHT22;3443;48.812;9.112;2023-02-26T04:48:37;-1.30;99.90
6810;DHT22;3443;48.812;9.112;2023-02-26T04:51:02;-1.30;99.90
6810;DHT22;3443;48.812;9.112;2023-02-26T04:53:28;-1.30;99.90
6810;DHT22;3443;48.812;9.112;2023-02-26T04:55:54;-1.30;99.90
6810;DHT22;3443;48.812;9.112;2023-02-26T04:58:19;-1.30;99.90
6810;DHT22;3443;48.812;9.112;2023-02-26T05:00:52;-1.30;99.90
6810;DHT22;3443;48.812;9.112;2023-02-26T05:03:19;-1.20;99.90
6810;DHT22;3443;48.812;9.112;2023-02-26T05:05:44;-1.20;99.90
6810;DHT22;3443;48.812;9.112;2023-02-26T05:08:10;-1.30;99.90
6810;DHT22;3443;48.812;9.112;2023-02-26T05:10:36;-1.20;99.90
6810;DHT22;3443;48.812;9.112;2023-02-26T05:13:02;-1.30;99.90
6810;DHT22;3443;48.812;9.112;2023-02-26T05:15:27;-1.40;99.90
6810;DHT22;3443;48.812;9.112;2023-02-26T05:17:53;-1.40;99.90
6810;DHT22;3443;48.812;9.112;2023-02-26T05:20:18;-1.40;99.90
6810;DHT22;3443;48.812;9.112;2023-02-26T05:22:44;-1.40;99.90
6810;DHT22;3443;48.812;9.112;2023-02-26T05:25:10;-1.40;99.90
6810;DHT22;3443;48.812;9.112;2023-02-26T05:27:37;-1.40;99.90
6810;DHT22;3443;48.812;9.112;2023-02-26T05:30:05;-1.40;99.90
6810;DHT22;3443;48.812;9.112;2023-02-26T05:32:30;-1.40;99.90
6810;DHT22;3443;48.812;9.112;2023-02-26T05:34:56;-1.30;99.90
6810;DHT22;3443;48.812;9.112;2023-02-26T05:37:21;-1.40;99.90
6810;DHT22;3443;48.812;9.112;2023-02-26T05:39:47;-1.40;99.90
6810;DHT22;3443;48.812;9.112;2023-02-26T05:42:12;-1.40;99.90
6810;DHT22;3443;48.812;9.112;2023-02-26T05:44:38;-1.40;99.90
6810;DHT22;3443;48.812;9.112;2023-02-26T05:47:03;-1.50;99.90
6810;DHT22;3443;48.812;9.112;2023-02-26T05:49:29;-1.50;99.90
6810;DHT22;3443;48.812;9.112;2023-02-26T05:51:55;-1.60;99.90
6810;DHT22;3443;48.812;9.112;2023-02-26T05:54:20;-1.70;99.90
6810;DHT22;3443;48.812;9.112;2023-02-26T05:56:46;-1.70;99.90
6810;DHT22;3443;48.812;9.112;2023-02-26T05:59:11;-1.70;99.90
6810;DHT22;3443;48.812;9.112;2023-02-26T06:01:37;-1.70;99.90
6810;DHT22;3443;48.812;9.112;2023-02-26T06:04:04;-1.80;99.90
6810;DHT22;3443;48.812;9.112;2023-02-26T06:06:30;-1.80;99.90
6810;DHT22;3443;48.812;9.112;2023-02-26T06:08:55;-1.80;99.90
6810;DHT22;3443;48.812;9.112;2023-02-26T06:11:21;-1.90;99.90
6810;DHT22;3443;48.812;9.112;2023-02-26T06:13:47;-1.90;99.90
6810;DHT22;3443;48.812;9.112;2023-02-26T06:16:12;-1.90;99.90
6810;DHT22;3443;48.812;9.112;2023-02-26T06:18:38;-1.90;99.90
6810;DHT22;3443;48.812;9.112;2023-02-26T06:21:04;-1.90;99.90
6810;DHT22;3443;48.812;9.112;2023-02-26T06:23:29;-1.80;99.90
6810;DHT22;3443;48.812;9.112;2023-02-26T06:25:55;-1.80;99.90
6810;DHT22;3443;48.812;9.112;2023-02-26T06:28:21;-1.70;99.90
6810;DHT22;3443;48.812;9.112;2023-02-26T06:30:48;-1.80;99.90
6810;DHT22;3443;48.812;9.112;2023-02-26T06:33:16;-1.70;99.90
6810;DHT22;3443;48.812;9.112;2023-02-26T06:35:41;-1.80;99.90
6810;DHT22;3443;48.812;9.112;2023-02-26T06:38:07;-1.80;99.90
6810;DHT22;3443;48.812;9.112;2023-02-26T06:40:32;-1.70;99.90
6810;DHT22;3443;48.812;9.112;2023-02-26T06:42:58;-1.70;99.90
6810;DHT22;3443;48.812;9.112;2023-02-26T06:45:24;-1.60;99.90
6810;DHT22;3443;48.812;9.112;2023-02-26T06:47:50;-1.50;99.90
6810;DHT22;3443;48.812;9.112;2023-02-26T06:50:16;-1.50;99.90
6810;DHT22;3443;48.812;9.112;2023-02-26T06:52:41;-1.50;99.90
6810;DHT22;3443;48.812;9.112;2023-02-26T06:55:07;-1.50;99.90
6810;DHT22;3443;48.812;9.112;2023-02-26T06:57:33;-1.40;99.90
6810;DHT22;3443;48.812;9.112;2023-02-26T06:59:58;-1.30;99.90
6810;DHT22;3443;48.812;9.112;2023-02-26T07:02:25;-1.30;99.90
6810;DHT22;3443;48.812;9.112;2023-02-26T07:04:51;-1.30;99.90
6810;DHT22;3443;48.812;9.112;2023-02-26T07:07:17;-1.30;99.90
6810;DHT22;3443;48.812;9.112;2023-02-26T07:09:42;-1.30;99.90
6810;DHT22;3443;48.812;9.112;2023-02-26T07:12:08;-1.20;99.90
6810;DHT22;3443;48.812;9.112;2023-02-26T07:14:34;-1.20;99.90
6810;DHT22;3443;48.812;9.112;2023-02-26T07:17:00;-1.10;99.90
6810;DHT22;3443;48.812;9.112;2023-02-26T07:19:26;-1.10;99.90
6810;DHT22;3443;48.812;9.112;2023-02-26T07:21:52;-1.10;99.90
6810;DHT22;3443;48.812;9.112;2023-02-26T07:24:20;-1.00;99.90
6810;DHT22;3443;48.812;9.112;2023-02-26T07:26:45;-1.10;99.90
6810;DHT22;3443;48.812;9.112;2023-02-26T07:29:11;-1.10;99.90
6810;DHT22;3443;48.812;9.112;2023-02-26T07:31:37;-1.20;99.90
6810;DHT22;3443;48.812;9.112;2023-02-26T07:34:02;-1.20;99.90
6810;DHT22;3443;48.812;9.112;2023-02-26T07:36:28;-1.10;99.90
6810;DHT22;3443;48.812;9.112;2023-02-26T07:38:54;-1.10;99.90
6810;DHT22;3443;48.812;9.112;2023-02-26T07:41:19;-1.00;99.90
6810;DHT22;3443;48.812;9.112;2023-02-26T07:43:45;-0.90;99.90
6810;DHT22;3443;48.812;9.112;2023-02-26T07:46:11;-0.80;99.90
6810;DHT22;3443;48.812;9.112;2023-02-26T07:48:37;-0.70;99.90
6810;DHT22;3443;48.812;9.112;2023-02-26T07:51:03;-0.70;99.90
6810;DHT22;3443;48.812;9.112;2023-02-26T07:53:29;-0.80;99.90
6810;DHT22;3443;48.812;9.112;2023-02-26T07:55:54;-0.90;99.90
6810;DHT22;3443;48.812;9.112;2023-02-26T07:58:20;-0.90;99.90
6810;DHT22;3443;48.812;9.112;2023-02-26T08:00:46;-1.00;99.90
6810;DHT22;3443;48.812;9.112;2023-02-26T08:03:12;-1.20;99.90
6810;DHT22;3443;48.812;9.112;2023-02-26T08:05:37;-1.20;99.90
6810;DHT22;3443;48.812;9.112;2023-02-26T08:08:03;-1.30;99.90
6810;DHT22;3443;48.812;9.112;2023-02-26T08:10:30;-1.30;99.90
6810;DHT22;3443;48.812;9.112;2023-02-26T08:12:55;-1.20;99.90
6810;DHT22;3443;48.812;9.112;2023-02-26T08:15:21;-1.10;99.90
6810;DHT22;3443;48.812;9.112;2023-02-26T08:17:46;-1.00;99.90
6810;DHT22;3443;48.812;9.112;2023-02-26T08:20:12;-1.00;99.90
6810;DHT22;3443;48.812;9.112;2023-02-26T08:22:40;-1.00;99.90
6810;DHT22;3443;48.812;9.112;2023-02-26T08:25:06;-1.10;99.90
6810;DHT22;3443;48.812;9.112;2023-02-26T08:27:31;-1.20;99.90
6810;DHT22;3443;48.812;9.112;2023-02-26T08:29:57;-1.20;99.90
6810;DHT22;3443;48.812;9.112;2023-02-26T08:32:23;-1.00;99.90
6810;DHT22;3443;48.812;9.112;2023-02-26T08:34:51;-0.90;99.90
6810;DHT22;3443;48.812;9.112;2023-02-26T08:37:17;-0.90;99.90
6810;DHT22;3443;48.812;9.112;2023-02-26T08:39:42;-0.90;99.90
6810;DHT22;3443;48.812;9.112;2023-02-26T08:42:08;-0.80;99.90
6810;DHT22;3443;48.812;9.112;2023-02-26T08:44:34;-0.80;99.90
6810;DHT22;3443;48.812;9.112;2023-02-26T08:47:00;-0.70;99.90
6810;DHT22;3443;48.812;9.112;2023-02-26T08:49:25;-0.50;99.90
6810;DHT22;3443;48.812;9.112;2023-02-26T08:51:51;-0.60;99.90
6810;DHT22;3443;48.812;9.112;2023-02-26T08:54:16;-0.60;99.90
6810;DHT22;3443;48.812;9.112;2023-02-26T08:56:42;-0.70;99.90
6810;DHT22;3443;48.812;9.112;2023-02-26T08:59:08;-0.60;99.90
6810;DHT22;3443;48.812;9.112;2023-02-26T09:01:36;-0.70;99.90
6810;DHT22;3443;48.812;9.112;2023-02-26T09:04:01;-1.00;99.90
6810;DHT22;3443;48.812;9.112;2023-02-26T09:06:27;-1.10;99.90
6810;DHT22;3443;48.812;9.112;2023-02-26T09:08:52;-1.10;99.90
6810;DHT22;3443;48.812;9.112;2023-02-26T09:11:18;-1.10;99.90
6810;DHT22;3443;48.812;9.112;2023-02-26T09:13:43;-1.00;99.90
6810;DHT22;3443;48.812;9.112;2023-02-26T09:16:09;-1.00;99.90
6810;DHT22;3443;48.812;9.112;2023-02-26T09:18:35;-0.90;99.90
6810;DHT22;3443;48.812;9.112;2023-02-26T09:21:01;-0.90;99.90
6810;DHT22;3443;48.812;9.112;2023-02-26T09:23:27;-0.80;99.90
6810;DHT22;3443;48.812;9.112;2023-02-26T09:25:54;-0.80;99.90
6810;DHT22;3443;48.812;9.112;2023-02-26T09:28:21;-0.90;99.90
6810;DHT22;3443;48.812;9.112;2023-02-26T09:30:53;-0.80;99.90
6810;DHT22;3443;48.812;9.112;2023-02-26T09:33:20;-0.20;99.90
6810;DHT22;3443;48.812;9.112;2023-02-26T09:35:50;-0.70;99.90
6810;DHT22;3443;48.812;9.112;2023-02-26T09:38:17;-0.80;99.90
6810;DHT22;3443;48.812;9.112;2023-02-26T09:43:51;-0.90;99.90
6810;DHT22;3443;48.812;9.112;2023-02-26T09:49:04;-0.80;99.90
6810;DHT22;3443;48.812;9.112;2023-02-26T09:51:32;-0.80;99.90
6810;DHT22;3443;48.812;9.112;2023-02-26T09:53:59;-0.80;99.90
6810;DHT22;3443;48.812;9.112;2023-02-26T09:56:32;-0.80;99.90
6810;DHT22;3443;48.812;9.112;2023-02-26T09:59:01;-0.80;99.90
6810;DHT22;3443;48.812;9.112;2023-02-26T10:01:51;-0.80;99.90
6810;DHT22;3443;48.812;9.112;2023-02-26T10:04:53;-0.70;99.90
6810;DHT22;3443;48.812;9.112;2023-02-26T10:12:44;-0.80;99.90
6810;DHT22;3443;48.812;9.112;2023-02-26T10:15:27;-0.70;99.90
6810;DHT22;3443;48.812;9.112;2023-02-26T10:18:11;-0.70;99.90
6810;DHT22;3443;48.812;9.112;2023-02-26T10:21:00;-0.70;99.90
6810;DHT22;3443;48.812;9.112;2023-02-26T10:23:52;-0.80;99.90
6810;DHT22;3443;48.812;9.112;2023-02-26T10:26:30;-0.90;99.90
6810;DHT22;3443;48.812;9.112;2023-02-26T10:31:36;-0.70;99.90
6810;DHT22;3443;48.812;9.112;2023-02-26T10:34:23;-0.70;99.90
6810;DHT22;3443;48.812;9.112;2023-02-26T10:37:15;-0.70;99.90
6810;DHT22;3443;48.812;9.112;2023-02-26T10:39:54;-0.60;99.90
6810;DHT22;3443;48.812;9.112;2023-02-26T10:42:25;-0.40;99.90
6810;DHT22;3443;48.812;9.112;2023-02-26T10:48:16;-0.10;99.90
6810;DHT22;3443;48.812;9.112;2023-02-26T10:50:50;0.10;99.90
6810;DHT22;3443;48.812;9.112;2023-02-26T10:53:16;0.30;99.90
6810;DHT22;3443;48.812;9.112;2023-02-26T10:55:51;0.30;99.90
6810;DHT22;3443;48.812;9.112;2023-02-26T10:58:23;0.40;99.90
6810;DHT22;3443;48.812;9.112;2023-02-26T11:00:52;0.40;99.90
6810;DHT22;3443;48.812;9.112;2023-02-26T11:03:39;0.20;99.90
6810;DHT22;3443;48.812;9.112;2023-02-26T11:06:06;0.10;99.90
6810;DHT22;3443;48.812;9.112;2023-02-26T11:08:44;0.10;99.90
6810;DHT22;3443;48.812;9.112;2023-02-26T11:11:10;0.10;99.90
6810;DHT22;3443;48.812;9.112;2023-02-26T11:13:56;0.00;99.90
6810;DHT22;3443;48.812;9.112;2023-02-26T11:16:21;-0.10;99.90
6810;DHT22;3443;48.812;9.112;2023-02-26T11:18:49;0.00;99.90
6810;DHT22;3443;48.812;9.112;2023-02-26T11:21:21;0.00;99.90
6810;DHT22;3443;48.812;9.112;2023-02-26T11:23:56;0.00;99.90
6810;DHT22;3443;48.812;9.112;2023-02-26T11:26:26;0.00;99.90
6810;DHT22;3443;48.812;9.112;2023-02-26T11:28:57;0.10;99.90
6810;DHT22;3443;48.812;9.112;2023-02-26T11:31:23;0.20;99.90
6810;DHT22;3443;48.812;9.112;2023-02-26T11:34:04;0.30;99.90
6810;DHT22;3443;48.812;9.112;2023-02-26T11:36:31;0.40;99.90
6810;DHT22;3443;48.812;9.112;2023-02-26T11:39:02;0.50;99.90
6810;DHT22;3443;48.812;9.112;2023-02-26T11:41:29;0.70;99.90
6810;DHT22;3443;48.812;9.112;2023-02-26T11:44:15;0.60;99.90
6810;DHT22;3443;48.812;9.112;2023-02-26T11:46:50;0.60;99.90
6810;DHT22;3443;48.812;9.112;2023-02-26T11:49:19;0.60;99.90
6810;DHT22;3443;48.812;9.112;2023-02-26T11:51:46;0.70;99.90
6810;DHT22;3443;48.812;9.112;2023-02-26T11:54:24;0.80;99.90
6810;DHT22;3443;48.812;9.112;2023-02-26T11:56:51;0.90;99.90
6810;DHT22;3443;48.812;9.112;2023-02-26T11:59:25;0.80;99.90
6810;DHT22;3443;48.812;9.112;2023-02-26T12:01:52;0.60;99.90
6810;DHT22;3443;48.812;9.112;2023-02-26T12:04:24;0.60;99.90
6810;DHT22;3443;48.812;9.112;2023-02-26T12:06:52;0.50;99.90
6810;DHT22;3443;48.812;9.112;2023-02-26T12:09:19;0.40;99.90
6810;DHT22;3443;48.812;9.112;2023-02-26T12:12:00;0.40;99.90
6810;DHT22;3443;48.812;9.112;2023-02-26T12:23:03;0.50;99.90
6810;DHT22;3443;48.812;9.112;2023-02-26T12:25:42;0.50;99.90
6810;DHT22;3443;48.812;9.112;2023-02-26T12:28:33;0.50;99.90
6810;DHT22;3443;48.812;9.112;2023-02-26T12:31:25;-0.10;99.90
6810;DHT22;3443;48.812;9.112;2023-02-26T12:34:01;0.60;99.90
6810;DHT22;3443;48.812;9.112;2023-02-26T12:37:09;0.60;99.90
6810;DHT22;3443;48.812;9.112;2023-02-26T12:39:53;0.80;99.90
6810;DHT22;3443;48.812;9.112;2023-02-26T12:53:02;0.60;99.90
6810;DHT22;3443;48.812;9.112;2023-02-26T12:58:34;0.70;99.90
6810;DHT22;3443;48.812;9.112;2023-02-26T13:06:33;0.90;99.90
6810;DHT22;3443;48.812;9.112;2023-02-26T13:15:29;1.00;99.90
6810;DHT22;3443;48.812;9.112;2023-02-26T13:18:36;1.10;99.90
6810;DHT22;3443;48.812;9.112;2023-02-26T13:21:19;1.20;99.90
6810;DHT22;3443;48.812;9.112;2023-02-26T13:26:45;1.10;99.90
6810;DHT22;3443;48.812;9.112;2023-02-26T13:29:23;1.00;99.90
6810;DHT22;3443;48.812;9.112;2023-02-26T13:32:10;1.10;99.90
6810;DHT22;3443;48.812;9.112;2023-02-26T13:34:57;1.10;99.90
6810;DHT22;3443;48.812;9.112;2023-02-26T13:37:38;1.20;99.90
6810;DHT22;3443;48.812;9.112;2023-02-26T13:40:36;1.30;99.90
6810;DHT22;3443;48.812;9.112;2023-02-26T13:43:31;1.30;99.90
6810;DHT22;3443;48.812;9.112;2023-02-26T13:46:14;1.20;99.90
6810;DHT22;3443;48.812;9.112;2023-02-26T13:53:52;1.30;99.90
6810;DHT22;3443;48.812;9.112;2023-02-26T13:59:03;1.40;99.90
6810;DHT22;3443;48.812;9.112;2023-02-26T14:06:52;0.70;99.90
6810;DHT22;3443;48.812;9.112;2023-02-26T14:14:43;1.30;99.90
6810;DHT22;3443;48.812;9.112;2023-02-26T14:19:41;1.20;99.90
6810;DHT22;3443;48.812;9.112;2023-02-26T14:27:42;1.40;99.90
6810;DHT22;3443;48.812;9.112;2023-02-26T14:35:23;1.50;99.90
6810;DHT22;3443;48.812;9.112;2023-02-26T14:38:07;1.50;99.90
6810;DHT22;3443;48.812;9.112;2023-02-26T14:40:43;1.50;99.90
6810;DHT22;3443;48.812;9.112;2023-02-26T14:43:20;1.50;99.90
6810;DHT22;3443;48.812;9.112;2023-02-26T14:45:49;1.50;99.90
6810;DHT22;3443;48.812;9.112;2023-02-26T14:48:20;1.50;99.90
6810;DHT22;3443;48.812;9.112;2023-02-26T15:02:26;1.60;99.90
6810;DHT22;3443;48.812;9.112;2023-02-26T15:13:41;1.50;99.90
6810;DHT22;3443;48.812;9.112;2023-02-26T15:19:09;1.50;99.90
6810;DHT22;3443;48.812;9.112;2023-02-26T15:24:11;1.50;99.90
6810;DHT22;3443;48.812;9.112;2023-02-26T15:26:47;1.50;99.90
6810;DHT22;3443;48.812;9.112;2023-02-26T15:29:14;1.50;99.90
6810;DHT22;3443;48.812;9.112;2023-02-26T15:31:52;1.50;99.90
6810;DHT22;3443;48.812;9.112;2023-02-26T15:34:19;1.30;99.90
6810;DHT22;3443;48.812;9.112;2023-02-26T15:36:48;1.20;99.90
6810;DHT22;3443;48.812;9.112;2023-02-26T15:39:15;1.10;99.90
6810;DHT22;3443;48.812;9.112;2023-02-26T15:41:43;1.00;99.90
6810;DHT22;3443;48.812;9.112;2023-02-26T15:44:15;1.00;99.90
6810;DHT22;3443;48.812;9.112;2023-02-26T15:46:44;1.00;99.90
6810;DHT22;3443;48.812;9.112;2023-02-26T15:49:36;1.00;99.90
6810;DHT22;3443;48.812;9.112;2023-02-26T15:52:04;1.10;99.90
6810;DHT22;3443;48.812;9.112;2023-02-26T15:54:45;1.20;99.90
6810;DHT22;3443;48.812;9.112;2023-02-26T15:57:13;1.30;99.90
6810;DHT22;3443;48.812;9.112;2023-02-26T15:59:45;1.40;99.90
6810;DHT22;3443;48.812;9.112;2023-02-26T16:02:14;1.50;99.90
6810;DHT22;3443;48.812;9.112;2023-02-26T16:04:41;1.50;99.90
6810;DHT22;3443;48.812;9.112;2023-02-26T16:07:09;1.50;99.90
6810;DHT22;3443;48.812;9.112;2023-02-26T16:09:39;1.40;99.90
6810;DHT22;3443;48.812;9.112;2023-02-26T16:14:52;1.20;99.90
6810;DHT22;3443;48.812;9.112;2023-02-26T16:17:27;1.10;99.90
6810;DHT22;3443;48.812;9.112;2023-02-26T16:19:55;1.00;99.90
6810;DHT22;3443;48.812;9.112;2023-02-26T16:22:36;1.00;99.90
6810;DHT22;3443;48.812;9.112;2023-02-26T16:25:07;0.90;99.90
6810;DHT22;3443;48.812;9.112;2023-02-26T16:27:34;0.90;99.90
6810;DHT22;3443;48.812;9.112;2023-02-26T16:30:01;0.80;99.90
6810;DHT22;3443;48.812;9.112;2023-02-26T16:32:30;0.80;99.90
6810;DHT22;3443;48.812;9.112;2023-02-26T16:35:15;0.80;99.90
6810;DHT22;3443;48.812;9.112;2023-02-26T16:37:45;0.80;99.90
6810;DHT22;3443;48.812;9.112;2023-02-26T16:48:06;0.70;99.90
6810;DHT22;3443;48.812;9.112;2023-02-26T16:50:35;0.70;99.90
6810;DHT22;3443;48.812;9.112;2023-02-26T16:53:05;0.70;99.90
6810;DHT22;3443;48.812;9.112;2023-02-26T16:55:34;0.70;99.90
6810;DHT22;3443;48.812;9.112;2023-02-26T16:58:00;0.70;99.90
6810;DHT22;3443;48.812;9.112;2023-02-26T17:00:28;0.70;99.90
6810;DHT22;3443;48.812;9.112;2023-02-26T17:03:03;0.70;99.90
6810;DHT22;3443;48.812;9.112;2023-02-26T17:05:39;0.70;99.90
6810;DHT22;3443;48.812;9.112;2023-02-26T17:08:20;0.70;99.90
6810;DHT22;3443;48.812;9.112;2023-02-26T17:10:52;0.60;99.90
6810;DHT22;3443;48.812;9.112;2023-02-26T17:13:27;0.60;99.90
6810;DHT22;3443;48.812;9.112;2023-02-26T17:15:53;0.60;99.90
6810;DHT22;3443;48.812;9.112;2023-02-26T17:18:22;0.60;99.90
6810;DHT22;3443;48.812;9.112;2023-02-26T17:20:48;0.50;99.90
6810;DHT22;3443;48.812;9.112;2023-02-26T17:23:16;0.50;99.90
6810;DHT22;3443;48.812;9.112;2023-02-26T17:25:45;0.50;99.90
6810;DHT22;3443;48.812;9.112;2023-02-26T17:28:16;0.40;99.90
6810;DHT22;3443;48.812;9.112;2023-02-26T17:30:44;0.40;99.90
6810;DHT22;3443;48.812;9.112;2023-02-26T17:33:12;0.40;99.90
6810;DHT22;3443;48.812;9.112;2023-02-26T17:35:37;0.40;99.90
6810;DHT22;3443;48.812;9.112;2023-02-26T17:38:03;0.30;99.90
6810;DHT22;3443;48.812;9.112;2023-02-26T17:40:33;0.30;99.90
6810;DHT22;3443;48.812;9.112;2023-02-26T17:43:03;0.30;99.90
6810;DHT22;3443;48.812;9.112;2023-02-26T17:45:29;0.30;99.90
6810;DHT22;3443;48.812;9.112;2023-02-26T17:47:55;0.30;99.90
6810;DHT22;3443;48.812;9.112;2023-02-26T17:50:50;0.30;99.90
6810;DHT22;3443;48.812;9.112;2023-02-26T17:53:17;0.30;99.90
6810;DHT22;3443;48.812;9.112;2023-02-26T17:55:44;0.20;99.90
6810;DHT22;3443;48.812;9.112;2023-02-26T17:58:16;0.30;99.90
6810;DHT22;3443;48.812;9.112;2023-02-26T18:00:43;0.20;99.90
6810;DHT22;3443;48.812;9.112;2023-02-26T18:03:10;0.30;99.90
6810;DHT22;3443;48.812;9.112;2023-02-26T18:05:36;0.30;99.90
6810;DHT22;3443;48.812;9.112;2023-02-26T18:08:31;0.20;99.90
6810;DHT22;3443;48.812;9.112;2023-02-26T18:10:58;0.20;99.90
6810;DHT22;3443;48.812;9.112;2023-02-26T18:13:24;0.10;99.90
6810;DHT22;3443;48.812;9.112;2023-02-26T18:15:51;0.10;99.90
6810;DHT22;3443;48.812;9.112;2023-02-26T18:18:17;0.00;99.90
6810;DHT22;3443;48.812;9.112;2023-02-26T18:20:44;0.00;99.90
6810;DHT22;3443;48.812;9.112;2023-02-26T18:23:10;0.00;99.90
6810;DHT22;3443;48.812;9.112;2023-02-26T18:25:39;-0.10;99.90
6810;DHT22;3443;48.812;9.112;2023-02-26T18:28:06;-0.10;99.90
6810;DHT22;3443;48.812;9.112;2023-02-26T18:30:35;-0.10;99.90
6810;DHT22;3443;48.812;9.112;2023-02-26T18:33:03;-0.10;99.90
6810;DHT22;3443;48.812;9.112;2023-02-26T18:35:29;-0.20;99.90
6810;DHT22;3443;48.812;9.112;2023-02-26T18:37:56;-0.20;99.90
6810;DHT22;3443;48.812;9.112;2023-02-26T18:40:23;-0.20;99.90
6810;DHT22;3443;48.812;9.112;2023-02-26T18:42:49;-0.30;99.90
6810;DHT22;3443;48.812;9.112;2023-02-26T18:45:15;-0.30;99.90
6810;DHT22;3443;48.812;9.112;2023-02-26T18:47:41;-0.30;99.90
6810;DHT22;3443;48.812;9.112;2023-02-26T18:50:10;-0.30;99.90
6810;DHT22;3443;48.812;9.112;2023-02-26T18:52:36;-0.30;99.90
6810;DHT22;3443;48.812;9.112;2023-02-26T18:55:02;-0.30;99.90
6810;DHT22;3443;48.812;9.112;2023-02-26T18:57:29;-0.30;99.90
6810;DHT22;3443;48.812;9.112;2023-02-26T18:59:55;-0.30;99.90
6810;DHT22;3443;48.812;9.112;2023-02-26T19:02:20;-0.30;99.90
6810;DHT22;3443;48.812;9.112;2023-02-26T19:04:46;-0.30;99.90
6810;DHT22;3443;48.812;9.112;2023-02-26T19:07:12;-0.30;99.90
6810;DHT22;3443;48.812;9.112;2023-02-26T19:09:38;-0.30;99.90
6810;DHT22;3443;48.812;9.112;2023-02-26T19:12:04;-0.20;99.90
6810;DHT22;3443;48.812;9.112;2023-02-26T19:14:30;-0.20;99.90
6810;DHT22;3443;48.812;9.112;2023-02-26T19:16:55;-0.30;99.90